sensor_id;sensor_type;location;lat;lon;timestamp;P1;durP1;ratioP1;P2;durP2;ratioP2
60370;SDS011;48550;40.588;49.684;2023-01-26T00:01:10;29.48;;;15.65;;
60370;SDS011;48550;40.588;49.684;2023-01-26T00:03:38;35.60;;;14.63;;
60370;SDS011;48550;40.588;49.684;2023-01-26T00:06:05;33.15;;;14.32;;
60370;SDS011;48550;40.588;49.684;2023-01-26T00:08:36;32.03;;;14.35;;
60370;SDS011;48550;40.588;49.684;2023-01-26T00:11:05;25.95;;;12.18;;
60370;SDS011;48550;40.588;49.684;2023-01-26T00:13:33;29.58;;;14.70;;
60370;SDS011;48550;40.588;49.684;2023-01-26T00:15:59;27.08;;;13.13;;
60370;SDS011;48550;40.588;49.684;2023-01-26T00:18:25;25.27;;;13.63;;
60370;SDS011;48550;40.588;49.684;2023-01-26T00:20:58;26.90;;;14.05;;
60370;SDS011;48550;40.588;49.684;2023-01-26T00:23:25;31.33;;;13.43;;
60370;SDS011;48550;40.588;49.684;2023-01-26T00:25:52;33.20;;;12.90;;
60370;SDS011;48550;40.588;49.684;2023-01-26T00:28:18;23.83;;;13.85;;
60370;SDS011;48550;40.588;49.684;2023-01-26T00:30:43;24.13;;;12.10;;
60370;SDS011;48550;40.588;49.684;2023-01-26T00:33:09;27.15;;;12.52;;
60370;SDS011;48550;40.588;49.684;2023-01-26T00:35:35;35.70;;;12.45;;
60370;SDS011;48550;40.588;49.684;2023-01-26T00:38:01;25.88;;;13.57;;
60370;SDS011;48550;40.588;49.684;2023-01-26T00:40:26;27.75;;;13.07;;
60370;SDS011;48550;40.588;49.684;2023-01-26T00:42:52;28.58;;;12.27;;
60370;SDS011;48550;40.588;49.684;2023-01-26T00:45:21;24.67;;;12.18;;
60370;SDS011;48550;40.588;49.684;2023-01-26T00:47:47;26.38;;;12.02;;
60370;SDS011;48550;40.588;49.684;2023-01-26T00:50:13;31.08;;;12.93;;
60370;SDS011;48550;40.588;49.684;2023-01-26T00:52:39;30.65;;;12.80;;
60370;SDS011;48550;40.588;49.684;2023-01-26T00:55:04;29.38;;;13.73;;
60370;SDS011;48550;40.588;49.684;2023-01-26T00:57:31;25.88;;;12.82;;
60370;SDS011;48550;40.588;49.684;2023-01-26T00:59:56;23.58;;;11.88;;
60370;SDS011;48550;40.588;49.684;2023-01-26T01:02:22;29.08;;;12.93;;
60370;SDS011;48550;40.588;49.684;2023-01-26T01:04:48;28.23;;;13.20;;
60370;SDS011;48550;40.588;49.684;2023-01-26T01:07:13;29.15;;;14.10;;
60370;SDS011;48550;40.588;49.684;2023-01-26T01:09:39;26.38;;;12.82;;
60370;SDS011;48550;40.588;49.684;2023-01-26T01:12:05;29.80;;;13.15;;
60370;SDS011;48550;40.588;49.684;2023-01-26T01:14:31;27.85;;;12.82;;
60370;SDS011;48550;40.588;49.684;2023-01-26T01:16:56;26.88;;;13.20;;
60370;SDS011;48550;40.588;49.684;2023-01-26T01:19:22;28.25;;;13.27;;
60370;SDS011;48550;40.588;49.684;2023-01-26T01:21:48;24.83;;;13.00;;
60370;SDS011;48550;40.588;49.684;2023-01-26T01:24:14;30.48;;;14.25;;
60370;SDS011;48550;40.588;49.684;2023-01-26T01:26:39;25.67;;;12.93;;
60370;SDS011;48550;40.588;49.684;2023-01-26T01:29:05;30.10;;;13.07;;
60370;SDS011;48550;40.588;49.684;2023-01-26T01:31:32;28.08;;;13.93;;
60370;SDS011;48550;40.588;49.684;2023-01-26T01:33:57;28.67;;;12.85;;
60370;SDS011;48550;40.588;49.684;2023-01-26T01:36:23;25.95;;;12.70;;
60370;SDS011;48550;40.588;49.684;2023-01-26T01:38:49;29.75;;;13.02;;
60370;SDS011;48550;40.588;49.684;2023-01-26T01:41:16;33.35;;;13.00;;
60370;SDS011;48550;40.588;49.684;2023-01-26T01:43:43;26.20;;;11.75;;
60370;SDS011;48550;40.588;49.684;2023-01-26T01:46:21;29.17;;;11.55;;
60370;SDS011;48550;40.588;49.684;2023-01-26T01:49:04;24.60;;;12.85;;
60370;SDS011;48550;40.588;49.684;2023-01-26T01:51:56;30.70;;;13.38;;
60370;SDS011;48550;40.588;49.684;2023-01-26T01:54:35;30.60;;;13.07;;
60370;SDS011;48550;40.588;49.684;2023-01-26T01:57:05;33.35;;;12.35;;
60370;SDS011;48550;40.588;49.684;2023-01-26T01:59:40;31.35;;;13.38;;
60370;SDS011;48550;40.588;49.684;2023-01-26T02:02:10;32.17;;;13.15;;
60370;SDS011;48550;40.588;49.684;2023-01-26T02:04:36;28.35;;;13.07;;
60370;SDS011;48550;40.588;49.684;2023-01-26T02:07:02;31.35;;;15.48;;
60370;SDS011;48550;40.588;49.684;2023-01-26T02:09:34;33.55;;;14.98;;
60370;SDS011;48550;40.588;49.684;2023-01-26T02:12:21;24.70;;;12.40;;
60370;SDS011;48550;40.588;49.684;2023-01-26T02:14:51;26.10;;;13.65;;
60370;SDS011;48550;40.588;49.684;2023-01-26T02:17:17;29.13;;;13.13;;
60370;SDS011;48550;40.588;49.684;2023-01-26T02:22:15;30.42;;;13.70;;
60370;SDS011;48550;40.588;49.684;2023-01-26T02:25:03;26.10;;;13.13;;
60370;SDS011;48550;40.588;49.684;2023-01-26T02:27:51;29.77;;;13.82;;
60370;SDS011;48550;40.588;49.684;2023-01-26T02:30:17;24.73;;;12.77;;
60370;SDS011;48550;40.588;49.684;2023-01-26T02:32:43;33.25;;;12.95;;
60370;SDS011;48550;40.588;49.684;2023-01-26T02:35:08;31.55;;;13.57;;
60370;SDS011;48550;40.588;49.684;2023-01-26T02:37:34;33.20;;;14.30;;
60370;SDS011;48550;40.588;49.684;2023-01-26T02:40:18;33.03;;;12.85;;
60370;SDS011;48550;40.588;49.684;2023-01-26T02:42:55;33.35;;;13.20;;
60370;SDS011;48550;40.588;49.684;2023-01-26T02:45:20;26.92;;;12.43;;
60370;SDS011;48550;40.588;49.684;2023-01-26T02:47:47;24.60;;;12.65;;
60370;SDS011;48550;40.588;49.684;2023-01-26T02:50:13;27.92;;;13.13;;
60370;SDS011;48550;40.588;49.684;2023-01-26T02:52:39;29.52;;;13.52;;
60370;SDS011;48550;40.588;49.684;2023-01-26T02:55:05;28.00;;;12.55;;
60370;SDS011;48550;40.588;49.684;2023-01-26T02:57:53;28.33;;;13.13;;
60370;SDS011;48550;40.588;49.684;2023-01-26T03:02:48;30.08;;;13.63;;
60370;SDS011;48550;40.588;49.684;2023-01-26T03:05:16;32.80;;;12.85;;
60370;SDS011;48550;40.588;49.684;2023-01-26T03:07:43;27.63;;;13.20;;
60370;SDS011;48550;40.588;49.684;2023-01-26T03:10:09;29.65;;;13.00;;
60370;SDS011;48550;40.588;49.684;2023-01-26T03:12:35;31.83;;;11.82;;
60370;SDS011;48550;40.588;49.684;2023-01-26T03:15:00;27.65;;;12.40;;
60370;SDS011;48550;40.588;49.684;2023-01-26T03:17:45;25.10;;;11.88;;
60370;SDS011;48550;40.588;49.684;2023-01-26T03:20:10;26.80;;;12.20;;
60370;SDS011;48550;40.588;49.684;2023-01-26T03:22:55;28.42;;;13.80;;
60370;SDS011;48550;40.588;49.684;2023-01-26T03:25:39;25.83;;;12.32;;
60370;SDS011;48550;40.588;49.684;2023-01-26T03:28:23;36.22;;;13.88;;
60370;SDS011;48550;40.588;49.684;2023-01-26T03:30:49;28.42;;;12.48;;
60370;SDS011;48550;40.588;49.684;2023-01-26T03:33:16;28.65;;;13.77;;
60370;SDS011;48550;40.588;49.684;2023-01-26T03:35:43;30.27;;;12.43;;
60370;SDS011;48550;40.588;49.684;2023-01-26T03:38:09;36.85;;;13.73;;
60370;SDS011;48550;40.588;49.684;2023-01-26T03:40:35;29.70;;;13.90;;
60370;SDS011;48550;40.588;49.684;2023-01-26T03:43:19;28.40;;;12.93;;
60370;SDS011;48550;40.588;49.684;2023-01-26T03:46:03;35.13;;;13.38;;
60370;SDS011;48550;40.588;49.684;2023-01-26T03:48:48;30.08;;;12.75;;
60370;SDS011;48550;40.588;49.684;2023-01-26T03:51:32;46.85;;;14.13;;
60370;SDS011;48550;40.588;49.684;2023-01-26T03:54:16;36.40;;;14.13;;
60370;SDS011;48550;40.588;49.684;2023-01-26T03:57:00;38.50;;;15.85;;
60370;SDS011;48550;40.588;49.684;2023-01-26T03:59:26;36.15;;;15.27;;
60370;SDS011;48550;40.588;49.684;2023-01-26T04:02:04;40.80;;;14.48;;
60370;SDS011;48550;40.588;49.684;2023-01-26T04:04:49;33.67;;;13.90;;
60370;SDS011;48550;40.588;49.684;2023-01-26T04:07:34;35.80;;;16.10;;
60370;SDS011;48550;40.588;49.684;2023-01-26T04:10:19;31.13;;;14.15;;
60370;SDS011;48550;40.588;49.684;2023-01-26T04:12:45;32.40;;;13.68;;
60370;SDS011;48550;40.588;49.684;2023-01-26T04:15:29;28.92;;;13.80;;
60370;SDS011;48550;40.588;49.684;2023-01-26T04:18:13;42.35;;;15.30;;
60370;SDS011;48550;40.588;49.684;2023-01-26T04:20:57;29.60;;;13.15;;
60370;SDS011;48550;40.588;49.684;2023-01-26T04:23:41;36.45;;;16.33;;
60370;SDS011;48550;40.588;49.684;2023-01-26T04:26:06;34.22;;;16.60;;
60370;SDS011;48550;40.588;49.684;2023-01-26T04:28:32;37.90;;;14.98;;
60370;SDS011;48550;40.588;49.684;2023-01-26T04:31:00;28.10;;;13.77;;
60370;SDS011;48550;40.588;49.684;2023-01-26T04:33:28;35.72;;;14.95;;
60370;SDS011;48550;40.588;49.684;2023-01-26T04:35:54;62.63;;;14.02;;
60370;SDS011;48550;40.588;49.684;2023-01-26T04:38:20;45.22;;;14.18;;
60370;SDS011;48550;40.588;49.684;2023-01-26T04:40:54;30.35;;;15.07;;
60370;SDS011;48550;40.588;49.684;2023-01-26T04:43:20;31.95;;;14.15;;
60370;SDS011;48550;40.588;49.684;2023-01-26T04:45:56;40.78;;;15.52;;
60370;SDS011;48550;40.588;49.684;2023-01-26T04:48:26;28.48;;;14.15;;
60370;SDS011;48550;40.588;49.684;2023-01-26T04:50:53;43.78;;;15.15;;
60370;SDS011;48550;40.588;49.684;2023-01-26T04:53:19;88.43;;;35.22;;
60370;SDS011;48550;40.588;49.684;2023-01-26T04:55:45;40.20;;;15.70;;
60370;SDS011;48550;40.588;49.684;2023-01-26T04:58:11;37.60;;;16.25;;
60370;SDS011;48550;40.588;49.684;2023-01-26T05:00:36;38.55;;;15.65;;
60370;SDS011;48550;40.588;49.684;2023-01-26T05:03:02;37.33;;;15.80;;
60370;SDS011;48550;40.588;49.684;2023-01-26T05:05:28;39.50;;;18.38;;
60370;SDS011;48550;40.588;49.684;2023-01-26T05:07:53;44.97;;;16.48;;
60370;SDS011;48550;40.588;49.684;2023-01-26T05:10:19;34.08;;;14.85;;
60370;SDS011;48550;40.588;49.684;2023-01-26T05:12:45;35.05;;;14.43;;
60370;SDS011;48550;40.588;49.684;2023-01-26T05:15:10;31.45;;;14.52;;
60370;SDS011;48550;40.588;49.684;2023-01-26T05:17:36;33.30;;;15.98;;
60370;SDS011;48550;40.588;49.684;2023-01-26T05:20:02;46.53;;;16.48;;
60370;SDS011;48550;40.588;49.684;2023-01-26T05:22:28;38.10;;;15.43;;
60370;SDS011;48550;40.588;49.684;2023-01-26T05:24:54;36.85;;;15.85;;
60370;SDS011;48550;40.588;49.684;2023-01-26T05:27:20;44.85;;;17.98;;
60370;SDS011;48550;40.588;49.684;2023-01-26T05:29:46;27.90;;;14.82;;
60370;SDS011;48550;40.588;49.684;2023-01-26T05:32:12;51.55;;;21.95;;
60370;SDS011;48550;40.588;49.684;2023-01-26T05:34:38;34.67;;;18.33;;
60370;SDS011;48550;40.588;49.684;2023-01-26T05:37:04;41.22;;;18.70;;
60370;SDS011;48550;40.588;49.684;2023-01-26T05:39:30;36.67;;;16.85;;
60370;SDS011;48550;40.588;49.684;2023-01-26T05:41:55;32.28;;;17.95;;
60370;SDS011;48550;40.588;49.684;2023-01-26T05:44:21;34.33;;;17.13;;
60370;SDS011;48550;40.588;49.684;2023-01-26T05:46:49;34.08;;;17.02;;
60370;SDS011;48550;40.588;49.684;2023-01-26T05:49:15;35.60;;;17.25;;
60370;SDS011;48550;40.588;49.684;2023-01-26T05:51:40;32.47;;;17.00;;
60370;SDS011;48550;40.588;49.684;2023-01-26T05:54:06;41.22;;;21.65;;
60370;SDS011;48550;40.588;49.684;2023-01-26T05:56:32;30.52;;;15.95;;
60370;SDS011;48550;40.588;49.684;2023-01-26T05:58:58;34.03;;;16.48;;
60370;SDS011;48550;40.588;49.684;2023-01-26T06:01:24;37.08;;;16.17;;
60370;SDS011;48550;40.588;49.684;2023-01-26T06:03:49;38.40;;;19.00;;
60370;SDS011;48550;40.588;49.684;2023-01-26T06:06:15;42.55;;;17.20;;
60370;SDS011;48550;40.588;49.684;2023-01-26T06:08:40;40.47;;;19.08;;
60370;SDS011;48550;40.588;49.684;2023-01-26T06:11:06;35.55;;;19.27;;
60370;SDS011;48550;40.588;49.684;2023-01-26T06:13:32;36.63;;;17.35;;
60370;SDS011;48550;40.588;49.684;2023-01-26T06:16:01;42.58;;;19.35;;
60370;SDS011;48550;40.588;49.684;2023-01-26T06:18:26;34.90;;;17.40;;
60370;SDS011;48550;40.588;49.684;2023-01-26T06:20:52;45.80;;;17.45;;
60370;SDS011;48550;40.588;49.684;2023-01-26T06:23:18;40.70;;;16.73;;
60370;SDS011;48550;40.588;49.684;2023-01-26T06:25:43;36.17;;;17.50;;
60370;SDS011;48550;40.588;49.684;2023-01-26T06:28:09;29.35;;;17.35;;
60370;SDS011;48550;40.588;49.684;2023-01-26T06:30:35;36.20;;;17.77;;
60370;SDS011;48550;40.588;49.684;2023-01-26T06:33:01;44.22;;;19.90;;
60370;SDS011;48550;40.588;49.684;2023-01-26T06:35:26;42.80;;;20.23;;
60370;SDS011;48550;40.588;49.684;2023-01-26T06:37:52;50.35;;;20.90;;
60370;SDS011;48550;40.588;49.684;2023-01-26T06:40:18;40.40;;;19.95;;
60370;SDS011;48550;40.588;49.684;2023-01-26T06:42:47;34.78;;;17.83;;
60370;SDS011;48550;40.588;49.684;2023-01-26T06:45:14;27.88;;;15.73;;
60370;SDS011;48550;40.588;49.684;2023-01-26T06:47:44;36.28;;;16.20;;
60370;SDS011;48550;40.588;49.684;2023-01-26T06:50:11;32.60;;;17.48;;
60370;SDS011;48550;40.588;49.684;2023-01-26T06:52:37;46.90;;;18.55;;
60370;SDS011;48550;40.588;49.684;2023-01-26T06:55:08;34.55;;;17.35;;
60370;SDS011;48550;40.588;49.684;2023-01-26T06:57:41;38.67;;;18.63;;
60370;SDS011;48550;40.588;49.684;2023-01-26T07:00:08;33.75;;;18.30;;
60370;SDS011;48550;40.588;49.684;2023-01-26T07:02:34;36.25;;;19.73;;
60370;SDS011;48550;40.588;49.684;2023-01-26T07:05:00;39.55;;;18.00;;
60370;SDS011;48550;40.588;49.684;2023-01-26T07:07:25;51.80;;;20.20;;
60370;SDS011;48550;40.588;49.684;2023-01-26T07:09:52;44.92;;;19.13;;
60370;SDS011;48550;40.588;49.684;2023-01-26T07:12:17;68.22;;;22.17;;
60370;SDS011;48550;40.588;49.684;2023-01-26T07:14:43;46.03;;;18.92;;
60370;SDS011;48550;40.588;49.684;2023-01-26T07:17:09;45.05;;;18.83;;
60370;SDS011;48550;40.588;49.684;2023-01-26T07:19:34;43.65;;;16.88;;
60370;SDS011;48550;40.588;49.684;2023-01-26T07:22:01;39.38;;;16.45;;
60370;SDS011;48550;40.588;49.684;2023-01-26T07:24:27;30.55;;;14.20;;
60370;SDS011;48550;40.588;49.684;2023-01-26T07:26:54;28.27;;;13.73;;
60370;SDS011;48550;40.588;49.684;2023-01-26T07:29:20;26.65;;;13.40;;
60370;SDS011;48550;40.588;49.684;2023-01-26T07:31:46;37.50;;;15.93;;
60370;SDS011;48550;40.588;49.684;2023-01-26T07:34:11;27.33;;;14.27;;
60370;SDS011;48550;40.588;49.684;2023-01-26T07:36:37;36.63;;;18.13;;
60370;SDS011;48550;40.588;49.684;2023-01-26T07:39:03;33.33;;;15.30;;
60370;SDS011;48550;40.588;49.684;2023-01-26T07:41:30;27.83;;;13.45;;
60370;SDS011;48550;40.588;49.684;2023-01-26T07:43:56;31.38;;;13.80;;
60370;SDS011;48550;40.588;49.684;2023-01-26T07:46:22;39.95;;;21.25;;
60370;SDS011;48550;40.588;49.684;2023-01-26T07:48:48;34.63;;;15.65;;
60370;SDS011;48550;40.588;49.684;2023-01-26T07:51:14;30.23;;;13.48;;
60370;SDS011;48550;40.588;49.684;2023-01-26T07:53:40;25.50;;;13.70;;
60370;SDS011;48550;40.588;49.684;2023-01-26T07:56:11;24.02;;;13.00;;
60370;SDS011;48550;40.588;49.684;2023-01-26T07:58:38;24.65;;;13.07;;
60370;SDS011;48550;40.588;49.684;2023-01-26T08:01:09;28.13;;;14.15;;
60370;SDS011;48550;40.588;49.684;2023-01-26T08:03:38;30.83;;;13.68;;
60370;SDS011;48550;40.588;49.684;2023-01-26T08:06:04;41.08;;;18.75;;
60370;SDS011;48550;40.588;49.684;2023-01-26T08:08:30;27.83;;;14.38;;
60370;SDS011;48550;40.588;49.684;2023-01-26T08:10:59;30.73;;;13.88;;
60370;SDS011;48550;40.588;49.684;2023-01-26T08:13:26;26.40;;;13.20;;
60370;SDS011;48550;40.588;49.684;2023-01-26T08:15:53;30.10;;;13.18;;
60370;SDS011;48550;40.588;49.684;2023-01-26T08:18:19;27.23;;;11.82;;
60370;SDS011;48550;40.588;49.684;2023-01-26T08:20:49;24.67;;;11.93;;
60370;SDS011;48550;40.588;49.684;2023-01-26T08:23:16;24.85;;;11.43;;
60370;SDS011;48550;40.588;49.684;2023-01-26T08:25:41;20.75;;;10.30;;
60370;SDS011;48550;40.588;49.684;2023-01-26T08:28:07;22.20;;;10.63;;
60370;SDS011;48550;40.588;49.684;2023-01-26T08:30:33;19.35;;;10.88;;
60370;SDS011;48550;40.588;49.684;2023-01-26T08:33:00;40.83;;;10.15;;
60370;SDS011;48550;40.588;49.684;2023-01-26T08:35:26;19.45;;;9.80;;
60370;SDS011;48550;40.588;49.684;2023-01-26T08:37:52;21.48;;;11.13;;
60370;SDS011;48550;40.588;49.684;2023-01-26T08:40:18;22.60;;;11.40;;
60370;SDS011;48550;40.588;49.684;2023-01-26T08:42:44;23.38;;;10.77;;
60370;SDS011;48550;40.588;49.684;2023-01-26T08:45:09;21.70;;;10.43;;
60370;SDS011;48550;40.588;49.684;2023-01-26T08:47:35;20.67;;;10.18;;
60370;SDS011;48550;40.588;49.684;2023-01-26T08:50:01;27.02;;;11.57;;
60370;SDS011;48550;40.588;49.684;2023-01-26T08:52:27;20.38;;;10.60;;
60370;SDS011;48550;40.588;49.684;2023-01-26T08:54:52;27.42;;;12.25;;
60370;SDS011;48550;40.588;49.684;2023-01-26T08:57:18;21.35;;;10.55;;
60370;SDS011;48550;40.588;49.684;2023-01-26T08:59:44;19.45;;;9.18;;
60370;SDS011;48550;40.588;49.684;2023-01-26T09:02:09;24.02;;;12.15;;
60370;SDS011;48550;40.588;49.684;2023-01-26T09:04:35;20.88;;;10.13;;
60370;SDS011;48550;40.588;49.684;2023-01-26T09:07:01;20.15;;;10.05;;
60370;SDS011;48550;40.588;49.684;2023-01-26T09:09:26;15.07;;;9.15;;
60370;SDS011;48550;40.588;49.684;2023-01-26T09:11:55;18.67;;;10.25;;
60370;SDS011;48550;40.588;49.684;2023-01-26T09:14:21;23.73;;;11.43;;
60370;SDS011;48550;40.588;49.684;2023-01-26T09:16:48;24.48;;;11.07;;
60370;SDS011;48550;40.588;49.684;2023-01-26T09:19:14;21.63;;;10.75;;
60370;SDS011;48550;40.588;49.684;2023-01-26T09:21:40;22.80;;;10.50;;
60370;SDS011;48550;40.588;49.684;2023-01-26T09:24:06;23.67;;;11.20;;
60370;SDS011;48550;40.588;49.684;2023-01-26T09:26:32;17.42;;;9.65;;
60370;SDS011;48550;40.588;49.684;2023-01-26T09:28:57;20.35;;;10.02;;
60370;SDS011;48550;40.588;49.684;2023-01-26T09:31:23;18.27;;;11.20;;
60370;SDS011;48550;40.588;49.684;2023-01-26T09:33:49;18.58;;;9.73;;
60370;SDS011;48550;40.588;49.684;2023-01-26T09:36:15;17.42;;;9.05;;
60370;SDS011;48550;40.588;49.684;2023-01-26T09:38:41;21.42;;;10.85;;
60370;SDS011;48550;40.588;49.684;2023-01-26T09:44:03;20.38;;;10.60;;
60370;SDS011;48550;40.588;49.684;2023-01-26T09:49:43;19.50;;;10.23;;
60370;SDS011;48550;40.588;49.684;2023-01-26T09:52:35;21.95;;;10.95;;
60370;SDS011;48550;40.588;49.684;2023-01-26T09:55:16;20.17;;;10.35;;
60370;SDS011;48550;40.588;49.684;2023-01-26T09:58:02;24.67;;;10.55;;
60370;SDS011;48550;40.588;49.684;2023-01-26T10:06:27;18.30;;;9.50;;
60370;SDS011;48550;40.588;49.684;2023-01-26T10:08:56;19.17;;;10.40;;
60370;SDS011;48550;40.588;49.684;2023-01-26T10:11:36;23.52;;;10.32;;
60370;SDS011;48550;40.588;49.684;2023-01-26T10:14:12;22.38;;;11.18;;
60370;SDS011;48550;40.588;49.684;2023-01-26T10:16:39;16.90;;;8.80;;
60370;SDS011;48550;40.588;49.684;2023-01-26T10:19:13;24.15;;;10.07;;
60370;SDS011;48550;40.588;49.684;2023-01-26T10:21:46;17.52;;;9.68;;
60370;SDS011;48550;40.588;49.684;2023-01-26T10:24:16;17.92;;;9.27;;
60370;SDS011;48550;40.588;49.684;2023-01-26T10:26:46;21.33;;;9.27;;
60370;SDS011;48550;40.588;49.684;2023-01-26T10:29:20;16.70;;;9.45;;
60370;SDS011;48550;40.588;49.684;2023-01-26T10:31:47;17.58;;;8.48;;
60370;SDS011;48550;40.588;49.684;2023-01-26T10:34:14;14.82;;;8.45;;
60370;SDS011;48550;40.588;49.684;2023-01-26T10:36:50;21.88;;;9.63;;
60370;SDS011;48550;40.588;49.684;2023-01-26T10:39:24;18.77;;;9.25;;
60370;SDS011;48550;40.588;49.684;2023-01-26T10:42:00;16.35;;;9.45;;
60370;SDS011;48550;40.588;49.684;2023-01-26T10:44:32;18.92;;;9.80;;
60370;SDS011;48550;40.588;49.684;2023-01-26T10:47:15;21.40;;;9.10;;
60370;SDS011;48550;40.588;49.684;2023-01-26T10:49:43;22.17;;;10.15;;
60370;SDS011;48550;40.588;49.684;2023-01-26T10:52:42;21.10;;;10.05;;
60370;SDS011;48550;40.588;49.684;2023-01-26T10:55:11;25.73;;;11.60;;
60370;SDS011;48550;40.588;49.684;2023-01-26T10:57:44;20.42;;;9.80;;
60370;SDS011;48550;40.588;49.684;2023-01-26T11:02:50;21.08;;;10.43;;
60370;SDS011;48550;40.588;49.684;2023-01-26T11:05:24;20.02;;;9.05;;
60370;SDS011;48550;40.588;49.684;2023-01-26T11:07:52;13.95;;;7.97;;
60370;SDS011;48550;40.588;49.684;2023-01-26T11:10:29;19.20;;;9.73;;
60370;SDS011;48550;40.588;49.684;2023-01-26T11:13:07;16.52;;;8.65;;
60370;SDS011;48550;40.588;49.684;2023-01-26T11:15:39;16.38;;;8.88;;
60370;SDS011;48550;40.588;49.684;2023-01-26T11:18:12;20.02;;;8.93;;
60370;SDS011;48550;40.588;49.684;2023-01-26T11:23:23;17.70;;;8.73;;
60370;SDS011;48550;40.588;49.684;2023-01-26T11:34:09;15.55;;;8.38;;
60370;SDS011;48550;40.588;49.684;2023-01-26T11:36:40;18.25;;;8.88;;
60370;SDS011;48550;40.588;49.684;2023-01-26T11:39:46;17.42;;;8.30;;
60370;SDS011;48550;40.588;49.684;2023-01-26T11:50:43;18.83;;;8.43;;
60370;SDS011;48550;40.588;49.684;2023-01-26T11:53:26;20.27;;;9.15;;
60370;SDS011;48550;40.588;49.684;2023-01-26T12:01:18;16.55;;;9.13;;
60370;SDS011;48550;40.588;49.684;2023-01-26T12:03:58;19.88;;;9.65;;
60370;SDS011;48550;40.588;49.684;2023-01-26T12:08:50;20.73;;;11.85;;
60370;SDS011;48550;40.588;49.684;2023-01-26T12:11:26;17.02;;;8.90;;
60370;SDS011;48550;40.588;49.684;2023-01-26T12:14:00;16.15;;;9.13;;
60370;SDS011;48550;40.588;49.684;2023-01-26T12:21:56;18.85;;;9.43;;
60370;SDS011;48550;40.588;49.684;2023-01-26T12:24:37;20.65;;;10.23;;
60370;SDS011;48550;40.588;49.684;2023-01-26T12:27:54;14.20;;;7.65;;
60370;SDS011;48550;40.588;49.684;2023-01-26T12:30:08;17.63;;;7.60;;
60370;SDS011;48550;40.588;49.684;2023-01-26T12:32:59;21.02;;;7.55;;
60370;SDS011;48550;40.588;49.684;2023-01-26T12:35:36;21.65;;;8.23;;
60370;SDS011;48550;40.588;49.684;2023-01-26T12:41:50;16.83;;;8.40;;
60370;SDS011;48550;40.588;49.684;2023-01-26T12:47:17;25.58;;;9.05;;
60370;SDS011;48550;40.588;49.684;2023-01-26T12:50:15;16.38;;;8.55;;
60370;SDS011;48550;40.588;49.684;2023-01-26T12:52:54;18.77;;;9.65;;
60370;SDS011;48550;40.588;49.684;2023-01-26T12:55:28;18.35;;;9.48;;
60370;SDS011;48550;40.588;49.684;2023-01-26T12:58:01;19.55;;;9.75;;
60370;SDS011;48550;40.588;49.684;2023-01-26T13:00:33;17.42;;;8.90;;
60370;SDS011;48550;40.588;49.684;2023-01-26T13:03:18;19.67;;;10.05;;
60370;SDS011;48550;40.588;49.684;2023-01-26T13:11:00;20.63;;;9.82;;
60370;SDS011;48550;40.588;49.684;2023-01-26T13:13:32;18.35;;;9.20;;
60370;SDS011;48550;40.588;49.684;2023-01-26T13:21:40;19.98;;;10.10;;
60370;SDS011;48550;40.588;49.684;2023-01-26T13:31:52;22.73;;;9.73;;
60370;SDS011;48550;40.588;49.684;2023-01-26T13:34:28;24.83;;;10.87;;
60370;SDS011;48550;40.588;49.684;2023-01-26T13:37:05;18.92;;;9.48;;
60370;SDS011;48550;40.588;49.684;2023-01-26T13:39:37;17.35;;;9.88;;
60370;SDS011;48550;40.588;49.684;2023-01-26T13:42:15;19.63;;;8.45;;
60370;SDS011;48550;40.588;49.684;2023-01-26T13:45:02;19.23;;;9.57;;
60370;SDS011;48550;40.588;49.684;2023-01-26T13:47:39;20.42;;;9.98;;
60370;SDS011;48550;40.588;49.684;2023-01-26T13:50:27;22.77;;;10.25;;
60370;SDS011;48550;40.588;49.684;2023-01-26T13:52:54;22.30;;;11.30;;
60370;SDS011;48550;40.588;49.684;2023-01-26T13:55:26;20.65;;;9.95;;
60370;SDS011;48550;40.588;49.684;2023-01-26T14:01:00;23.83;;;10.50;;
60370;SDS011;48550;40.588;49.684;2023-01-26T14:03:29;22.45;;;10.00;;
60370;SDS011;48550;40.588;49.684;2023-01-26T14:06:04;21.50;;;9.57;;
60370;SDS011;48550;40.588;49.684;2023-01-26T14:08:33;18.98;;;8.32;;
60370;SDS011;48550;40.588;49.684;2023-01-26T14:10:59;18.75;;;9.18;;
60370;SDS011;48550;40.588;49.684;2023-01-26T14:13:37;20.90;;;9.15;;
60370;SDS011;48550;40.588;49.684;2023-01-26T14:16:05;17.30;;;9.55;;
60370;SDS011;48550;40.588;49.684;2023-01-26T14:18:32;18.02;;;9.20;;
60370;SDS011;48550;40.588;49.684;2023-01-26T14:21:04;17.13;;;8.63;;
60370;SDS011;48550;40.588;49.684;2023-01-26T14:23:44;17.23;;;8.10;;
60370;SDS011;48550;40.588;49.684;2023-01-26T14:26:29;19.83;;;9.27;;
60370;SDS011;48550;40.588;49.684;2023-01-26T14:28:57;18.92;;;9.75;;
60370;SDS011;48550;40.588;49.684;2023-01-26T14:31:25;19.80;;;9.95;;
60370;SDS011;48550;40.588;49.684;2023-01-26T14:33:52;18.23;;;8.38;;
60370;SDS011;48550;40.588;49.684;2023-01-26T14:36:27;18.85;;;10.60;;
60370;SDS011;48550;40.588;49.684;2023-01-26T14:38:56;20.95;;;10.35;;
60370;SDS011;48550;40.588;49.684;2023-01-26T14:41:23;18.92;;;8.55;;
60370;SDS011;48550;40.588;49.684;2023-01-26T14:43:51;14.77;;;8.07;;
60370;SDS011;48550;40.588;49.684;2023-01-26T14:49:13;17.50;;;9.63;;
60370;SDS011;48550;40.588;49.684;2023-01-26T14:51:54;18.90;;;8.90;;
60370;SDS011;48550;40.588;49.684;2023-01-26T14:54:29;18.48;;;9.80;;
60370;SDS011;48550;40.588;49.684;2023-01-26T14:56:57;19.77;;;9.45;;
60370;SDS011;48550;40.588;49.684;2023-01-26T14:59:27;16.25;;;8.57;;
60370;SDS011;48550;40.588;49.684;2023-01-26T15:02:14;20.25;;;9.70;;
60370;SDS011;48550;40.588;49.684;2023-01-26T15:04:47;16.00;;;8.77;;
60370;SDS011;48550;40.588;49.684;2023-01-26T15:08:16;17.40;;;8.38;;
60370;SDS011;48550;40.588;49.684;2023-01-26T15:10:36;16.35;;;8.48;;
60370;SDS011;48550;40.588;49.684;2023-01-26T15:15:40;17.67;;;9.77;;
60370;SDS011;48550;40.588;49.684;2023-01-26T15:20:40;20.60;;;9.43;;
60370;SDS011;48550;40.588;49.684;2023-01-26T15:23:22;18.77;;;10.00;;
60370;SDS011;48550;40.588;49.684;2023-01-26T15:25:51;23.60;;;9.98;;
60370;SDS011;48550;40.588;49.684;2023-01-26T15:28:18;20.70;;;10.48;;
60370;SDS011;48550;40.588;49.684;2023-01-26T15:30:48;24.85;;;10.27;;
60370;SDS011;48550;40.588;49.684;2023-01-26T15:36:01;17.33;;;9.85;;
60370;SDS011;48550;40.588;49.684;2023-01-26T15:38:27;20.25;;;9.30;;
60370;SDS011;48550;40.588;49.684;2023-01-26T15:40:53;17.38;;;10.13;;
60370;SDS011;48550;40.588;49.684;2023-01-26T15:43:18;23.73;;;10.68;;
60370;SDS011;48550;40.588;49.684;2023-01-26T15:45:54;18.80;;;10.00;;
60370;SDS011;48550;40.588;49.684;2023-01-26T15:48:25;21.65;;;10.15;;
60370;SDS011;48550;40.588;49.684;2023-01-26T15:50:55;16.02;;;8.98;;
60370;SDS011;48550;40.588;49.684;2023-01-26T15:53:21;28.73;;;14.90;;
60370;SDS011;48550;40.588;49.684;2023-01-26T15:55:47;40.75;;;21.48;;
60370;SDS011;48550;40.588;49.684;2023-01-26T15:58:19;38.03;;;21.73;;
60370;SDS011;48550;40.588;49.684;2023-01-26T16:00:46;20.35;;;10.98;;